Darstellungsparameter: Aktuell verwendete Einstellungen:
Skalierung der Graphiken ... ?
xyx+y,   Skalierungsfaktor:      Skalierung: Modus: x, Faktor: 1
Darstellungszeitraum ... ?
Vom - - bis: - -   Zeitraum: 23.02.2013 - 23.02.2013
Min/Max/Avg-Anzeige ... ?
Zeige MMA aktuell
Zeige MMA Monat
Zeige MMA alles
Zeige --A aktuell
Zeige --A Monat
Zeige --A alles
Keine MMA-Anzeige
MMA:
Minimum Maximum Average (ber die Originaldaten)
MMA-Basis: 23.02.2003 - 30.09.2000
Quicknavigation für Darstellung... ?
Tage:      1T, 2T, 3T, 5T -1T -2T -3T -5T +1T +2T +3T +5T
Wochen: 1W, 2W, 3W -1W -2W -3W +1W +2W +3W
Monate: 1M, 3M, 6M -1M -3M -6M +1M +3M +6M
Jahre:    1J, 3J, 5J, 10J -1J -3J -5J -10J +1J +3J +5J +10J
Nutze für die Darstellung ... ?
Originaldaten oder Mittelwerte auf ...
Stundenbasis Tagesbasis Wochenbasis
Monatsbasis Jahresbasis      Datenbasis: Original-Daten
Darstellen als:
Statistik (Auto) Statistik J:M      Darstellung:
Zur Graphik,    zurück zur Übersicht aller Sensoren.
 
Tabellarische Datenbersicht: ?
 
Sensor: Nr:Datum:Temp:Abs-Feuchte:Windchill:Wind:
Aussen-T/F 1 23-02-2013 00:00:00 -2.8 C 2.87 g/m*3 -6.06 C 8.1 km/h
2 23-02-2013 00:05:00 -2.7 C 2.89 g/m*3 -5.3 C 6.4 km/h
3 23-02-2013 00:10:00 -2.8 C 2.91 g/m*3 -2.8 C 1.6 km/h
4 23-02-2013 00:15:00 -2.8 C 2.91 g/m*3 -2.8 C 1.6 km/h
5 23-02-2013 00:20:00 -2.8 C 2.91 g/m*3 -7.41 C 12.9 km/h
6 23-02-2013 00:25:00 -2.8 C 2.91 g/m*3 -6.57 C 9.7 km/h
7 23-02-2013 00:30:00 -2.8 C 2.91 g/m*3 -6.57 C 9.7 km/h
8 23-02-2013 00:35:00 -2.8 C 2.91 g/m*3 -8.39 C 17.7 km/h
9 23-02-2013 00:40:00 -2.8 C 2.91 g/m*3 -6.57 C 9.7 km/h
10 23-02-2013 00:45:00 -2.8 C 2.95 g/m*3 -5.42 C 6.4 km/h
11 23-02-2013 00:50:00 -2.8 C 2.95 g/m*3 -6.06 C 8.1 km/h
12 23-02-2013 00:55:00 -2.9 C 2.97 g/m*3 -2.9 C 3.2 km/h
13 23-02-2013 01:00:00 -3 C 2.95 g/m*3 -5.65 C 6.4 km/h
14 23-02-2013 01:05:00 -3.1 C 2.96 g/m*3 -3.1 C 1.6 km/h
15 23-02-2013 01:10:00 -3.1 C 2.96 g/m*3 -3.1 C 1.6 km/h
16 23-02-2013 01:15:00 -3.2 C 2.94 g/m*3 -3.2 C 3.2 km/h
17 23-02-2013 01:20:00 -3.2 C 2.98 g/m*3 -3.2 C 3.2 km/h
18 23-02-2013 01:25:00 -3.3 C 2.96 g/m*3 -3.3 C 1.6 km/h
19 23-02-2013 01:30:00 -3.3 C 2.96 g/m*3 -3.3 C 4.8 km/h
20 23-02-2013 01:35:00 -3.4 C 2.98 g/m*3 -7.29 C 9.7 km/h
21 23-02-2013 01:40:00 -3.4 C 2.94 g/m*3 -6.77 C 8.1 km/h
22 23-02-2013 01:45:00 -3.4 C 2.98 g/m*3 -3.4 C 3.2 km/h
23 23-02-2013 01:50:00 -3.5 C 2.96 g/m*3 -3.5 C 3.2 km/h
24 23-02-2013 01:55:00 -3.4 C 2.98 g/m*3 -6.11 C 6.4 km/h
25 23-02-2013 02:00:00 -3.4 C 2.94 g/m*3 -3.4 C 4.8 km/h
Sensor: Nr:Datum:Temp:Abs-Feuchte:Windchill:Wind:
Aussen-T/F 26 23-02-2013 02:05:00 -3.3 C 2.96 g/m*3 -5.99 C 6.4 km/h
27 23-02-2013 02:10:00 -3.3 C 2.96 g/m*3 -6.65 C 8.1 km/h
28 23-02-2013 02:15:00 -3.2 C 2.94 g/m*3 -7.05 C 9.7 km/h
29 23-02-2013 02:20:00 -3.2 C 2.94 g/m*3 -6.53 C 8.1 km/h
30 23-02-2013 02:25:00 -3.3 C 2.92 g/m*3 -7.17 C 9.7 km/h
31 23-02-2013 02:30:00 -3.3 C 2.96 g/m*3 -7.17 C 9.7 km/h
32 23-02-2013 02:35:00 -3.3 C 2.96 g/m*3 -6.65 C 8.1 km/h
33 23-02-2013 02:40:00 -3.4 C 2.94 g/m*3 -6.77 C 8.1 km/h
34 23-02-2013 02:45:00 -3.4 C 2.94 g/m*3 -6.11 C 6.4 km/h
35 23-02-2013 02:50:00 -3.4 C 2.98 g/m*3 -6.11 C 6.4 km/h
36 23-02-2013 02:55:00 -3.4 C 2.98 g/m*3 -7.29 C 9.7 km/h
37 23-02-2013 03:00:00 -3.5 C 2.96 g/m*3 -6.88 C 8.1 km/h
38 23-02-2013 03:05:00 -3.6 C 2.97 g/m*3 -7.98 C 11.3 km/h
39 23-02-2013 03:10:00 -3.6 C 2.97 g/m*3 -6.34 C 6.4 km/h
40 23-02-2013 03:15:00 -3.6 C 3.01 g/m*3 -7 C 8.1 km/h
41 23-02-2013 03:20:00 -3.6 C 3.01 g/m*3 -7 C 8.1 km/h
42 23-02-2013 03:25:00 -3.6 C 3.05 g/m*3 -7.53 C 9.7 km/h
43 23-02-2013 03:30:00 -3.7 C 3.03 g/m*3 -3.7 C 4.8 km/h
44 23-02-2013 03:35:00 -3.7 C 3.06 g/m*3 -6.46 C 6.4 km/h
45 23-02-2013 03:40:00 -3.7 C 3.06 g/m*3 -6.46 C 6.4 km/h
46 23-02-2013 03:45:00 -3.7 C 3.06 g/m*3 -7.12 C 8.1 km/h
47 23-02-2013 03:50:00 -3.7 C 3.06 g/m*3 -3.7 C 4.8 km/h
48 23-02-2013 03:55:00 -3.7 C 3.06 g/m*3 -6.46 C 6.4 km/h
49 23-02-2013 04:00:00 -3.7 C 3.1 g/m*3 -6.46 C 6.4 km/h
50 23-02-2013 04:05:00 -3.7 C 3.06 g/m*3 -6.46 C 6.4 km/h
Sensor: Nr:Datum:Temp:Abs-Feuchte:Windchill:Wind:
Aussen-T/F 51 23-02-2013 04:10:00 -3.7 C 3.06 g/m*3 -6.46 C 6.4 km/h
52 23-02-2013 04:15:00 -3.7 C 3.06 g/m*3 -3.7 C 3.2 km/h
53 23-02-2013 04:20:00 -3.7 C 3.06 g/m*3 -3.7 C 3.2 km/h
54 23-02-2013 04:25:00 -3.7 C 3.06 g/m*3 -3.7 C 4.8 km/h
55 23-02-2013 04:30:00 -3.7 C 3.06 g/m*3 -3.7 C 4.8 km/h
56 23-02-2013 04:35:00 -3.6 C 3.09 g/m*3 -6.34 C 6.4 km/h
57 23-02-2013 04:40:00 -3.6 C 3.09 g/m*3 -7 C 8.1 km/h
58 23-02-2013 04:45:00 -3.6 C 3.09 g/m*3 -7 C 8.1 km/h
59 23-02-2013 04:50:00 -3.6 C 3.09 g/m*3 -7 C 8.1 km/h
60 23-02-2013 04:55:00 -3.6 C 3.09 g/m*3 -7 C 8.1 km/h
61 23-02-2013 05:00:00 -3.6 C 3.09 g/m*3 -6.34 C 6.4 km/h
62 23-02-2013 05:05:00 -3.6 C 3.09 g/m*3 -6.34 C 6.4 km/h
63 23-02-2013 05:10:00 -3.6 C 3.09 g/m*3 -3.6 C 4.8 km/h
64 23-02-2013 05:15:00 -3.6 C 3.09 g/m*3 -7.53 C 9.7 km/h
65 23-02-2013 05:20:00 -3.6 C 3.09 g/m*3 -7.53 C 9.7 km/h
66 23-02-2013 05:25:00 -3.6 C 3.09 g/m*3 -6.34 C 6.4 km/h
67 23-02-2013 05:30:00 -3.6 C 3.09 g/m*3 -3.6 C 1.6 km/h
68 23-02-2013 05:35:00 -3.6 C 3.09 g/m*3 -3.6 C 4.8 km/h
69 23-02-2013 05:40:00 -3.5 C 3.11 g/m*3 -6.22 C 6.4 km/h
70 23-02-2013 05:45:00 -3.5 C 3.11 g/m*3 -3.5 C 4.8 km/h
71 23-02-2013 05:50:00 -3.5 C 3.11 g/m*3 -6.22 C 6.4 km/h
72 23-02-2013 05:55:00 -3.5 C 3.11 g/m*3 -7.41 C 9.7 km/h
73 23-02-2013 06:00:00 -3.5 C 3.11 g/m*3 -6.88 C 8.1 km/h
74 23-02-2013 06:05:00 -3.5 C 3.15 g/m*3 -6.22 C 6.4 km/h
75 23-02-2013 06:10:00 -3.5 C 3.11 g/m*3 -7.41 C 9.7 km/h
Sensor: Nr:Datum:Temp:Abs-Feuchte:Windchill:Wind:
Aussen-T/F 76 23-02-2013 06:15:00 -3.6 C 3.12 g/m*3 -6.34 C 6.4 km/h
77 23-02-2013 06:20:00 -3.6 C 3.12 g/m*3 -3.6 C 3.2 km/h
78 23-02-2013 06:25:00 -3.6 C 3.12 g/m*3 -3.6 C 4.8 km/h
79 23-02-2013 06:30:00 -3.7 C 3.14 g/m*3 -6.46 C 6.4 km/h
80 23-02-2013 06:35:00 -3.7 C 3.14 g/m*3 -3.7 C 4.8 km/h
81 23-02-2013 06:40:00 -3.7 C 3.18 g/m*3 -7.64 C 9.7 km/h
82 23-02-2013 06:45:00 -3.8 C 3.19 g/m*3 -3.8 C 4.8 km/h
83 23-02-2013 06:50:00 -3.8 C 3.23 g/m*3 -3.8 C 3.2 km/h
84 23-02-2013 06:55:00 -3.9 C 3.21 g/m*3 -3.9 C 3.2 km/h
85 23-02-2013 07:00:00 -3.9 C 3.24 g/m*3 -6.69 C 6.4 km/h
86 23-02-2013 07:05:00 -4 C 3.22 g/m*3 -6.8 C 6.4 km/h
87 23-02-2013 07:10:00 -4 C 3.26 g/m*3 -4 C 4.8 km/h
88 23-02-2013 07:15:00 -4.1 C 3.23 g/m*3 -6.92 C 6.4 km/h
89 23-02-2013 07:20:00 -4.1 C 3.27 g/m*3 -4.1 C 3.2 km/h
90 23-02-2013 07:25:00 -4.1 C 3.27 g/m*3 -4.1 C 1.6 km/h
91 23-02-2013 07:30:00 -4.1 C 3.23 g/m*3 -4.1 C 4.8 km/h
92 23-02-2013 07:35:00 -4.1 C 3.23 g/m*3 -4.1 C 3.2 km/h
93 23-02-2013 07:40:00 -4.1 C 3.23 g/m*3 -6.92 C 6.4 km/h
94 23-02-2013 07:45:00 -4.1 C 3.23 g/m*3 -4.1 C 3.2 km/h
95 23-02-2013 07:50:00 -4.1 C 3.23 g/m*3 -6.92 C 6.4 km/h
96 23-02-2013 07:55:00 -4.1 C 3.23 g/m*3 -6.92 C 6.4 km/h
97 23-02-2013 08:00:00 -4.1 C 3.2 g/m*3 -7.59 C 8.1 km/h
98 23-02-2013 08:05:00 -4.1 C 3.2 g/m*3 -6.92 C 6.4 km/h
99 23-02-2013 08:10:00 -4.1 C 3.2 g/m*3 -7.59 C 8.1 km/h
100 23-02-2013 08:15:00 -4.1 C 3.2 g/m*3 -8.12 C 9.7 km/h
Sensor: Nr:Datum:Temp:Abs-Feuchte:Windchill:Wind:
Aussen-T/F 101 23-02-2013 08:20:00 -4.1 C 3.2 g/m*3 -6.92 C 6.4 km/h
102 23-02-2013 08:25:00 -4.1 C 3.2 g/m*3 -8.12 C 9.7 km/h
103 23-02-2013 08:30:00 -4 C 3.22 g/m*3 -8.46 C 11.3 km/h
104 23-02-2013 08:35:00 -4 C 3.22 g/m*3 -8.87 C 12.9 km/h
105 23-02-2013 08:40:00 -3.9 C 3.24 g/m*3 -8.34 C 11.3 km/h
106 23-02-2013 08:45:00 -3.9 C 3.24 g/m*3 -7.35 C 8.1 km/h
107 23-02-2013 08:50:00 -3.8 C 3.27 g/m*3 -7.76 C 9.7 km/h
108 23-02-2013 08:55:00 -3.8 C 3.27 g/m*3 -6.57 C 6.4 km/h
109 23-02-2013 09:00:00 -3.7 C 3.29 g/m*3 -6.46 C 6.4 km/h
110 23-02-2013 09:05:00 -3.7 C 3.25 g/m*3 -8.1 C 11.3 km/h
111 23-02-2013 09:10:00 -3.6 C 3.27 g/m*3 -3.6 C 4.8 km/h
112 23-02-2013 09:15:00 -3.6 C 3.27 g/m*3 -7 C 8.1 km/h
113 23-02-2013 09:20:00 -3.6 C 3.27 g/m*3 -7 C 8.1 km/h
114 23-02-2013 09:25:00 -3.5 C 3.3 g/m*3 -7.41 C 9.7 km/h
115 23-02-2013 09:30:00 -3.4 C 3.32 g/m*3 -8.5 C 14.5 km/h
116 23-02-2013 09:35:00 -3.3 C 3.35 g/m*3 -7.62 C 11.3 km/h
117 23-02-2013 09:40:00 -3.2 C 3.37 g/m*3 -8.26 C 14.5 km/h
118 23-02-2013 09:45:00 -3.1 C 3.35 g/m*3 -8.13 C 14.5 km/h
119 23-02-2013 09:50:00 -3.1 C 3.32 g/m*3 -6.93 C 9.7 km/h
120 23-02-2013 09:55:00 -3.1 C 3.32 g/m*3 -6.41 C 8.1 km/h
121 23-02-2013 10:00:00 -3.1 C 3.35 g/m*3 -6.93 C 9.7 km/h
122 23-02-2013 10:05:00 -3.1 C 3.35 g/m*3 -7.78 C 12.9 km/h
123 23-02-2013 10:10:00 -3.1 C 3.35 g/m*3 -5.76 C 6.4 km/h
124 23-02-2013 10:15:00 -3.1 C 3.32 g/m*3 -5.76 C 6.4 km/h
125 23-02-2013 10:20:00 -3.1 C 3.35 g/m*3 -6.41 C 8.1 km/h
Sensor: Nr:Datum:Temp:Abs-Feuchte:Windchill:Wind:
Aussen-T/F 126 23-02-2013 10:25:00 -3 C 3.38 g/m*3 -6.81 C 9.7 km/h
127 23-02-2013 10:30:00 -3 C 3.34 g/m*3 -6.3 C 8.1 km/h
128 23-02-2013 10:35:00 -2.9 C 3.36 g/m*3 -6.18 C 8.1 km/h
129 23-02-2013 10:40:00 -2.8 C 3.43 g/m*3 -5.42 C 6.4 km/h
130 23-02-2013 10:45:00 -2.8 C 3.39 g/m*3 -6.06 C 8.1 km/h
131 23-02-2013 10:50:00 -2.7 C 3.41 g/m*3 -6.45 C 9.7 km/h
132 23-02-2013 10:55:00 -2.6 C 3.39 g/m*3 -6.33 C 9.7 km/h
133 23-02-2013 11:00:00 -2.6 C 3.39 g/m*3 -6.33 C 9.7 km/h
134 23-02-2013 11:05:00 -2.5 C 3.42 g/m*3 -7.04 C 12.9 km/h
135 23-02-2013 11:10:00 -2.4 C 3.48 g/m*3 -6.92 C 12.9 km/h
136 23-02-2013 11:15:00 -2.5 C 3.5 g/m*3 -6.21 C 9.7 km/h
137 23-02-2013 11:20:00 -2.6 C 3.52 g/m*3 -6.77 C 11.3 km/h
138 23-02-2013 11:25:00 -2.6 C 3.56 g/m*3 -5.83 C 8.1 km/h
139 23-02-2013 11:30:00 -2.6 C 3.6 g/m*3 -6.33 C 9.7 km/h
140 23-02-2013 11:35:00 -2.6 C 3.64 g/m*3 -7.17 C 12.9 km/h
141 23-02-2013 11:40:00 -2.6 C 3.6 g/m*3 -7.52 C 14.5 km/h
142 23-02-2013 11:45:00 -2.6 C 3.64 g/m*3 -5.83 C 8.1 km/h
143 23-02-2013 11:50:00 -2.5 C 3.66 g/m*3 -6.65 C 11.3 km/h
144 23-02-2013 11:55:00 -2.4 C 3.69 g/m*3 -6.1 C 9.7 km/h
145 23-02-2013 12:00:00 -2.4 C 3.69 g/m*3 -6.1 C 9.7 km/h
146 23-02-2013 12:05:00 -2.4 C 3.69 g/m*3 -6.1 C 9.7 km/h
147 23-02-2013 12:10:00 -2.4 C 3.69 g/m*3 -6.53 C 11.3 km/h
148 23-02-2013 12:15:00 -2.3 C 3.71 g/m*3 -5.98 C 9.7 km/h
149 23-02-2013 12:20:00 -2.2 C 3.74 g/m*3 -6.68 C 12.9 km/h
150 23-02-2013 12:25:00 -2.2 C 3.7 g/m*3 -6.29 C 11.3 km/h
Sensor: Nr:Datum:Temp:Abs-Feuchte:Windchill:Wind:
Aussen-T/F 151 23-02-2013 12:30:00 -2.1 C 3.73 g/m*3 -6.56 C 12.9 km/h
152 23-02-2013 12:35:00 -2.2 C 3.66 g/m*3 -6.68 C 12.9 km/h
153 23-02-2013 12:40:00 -2.2 C 3.66 g/m*3 -5.36 C 8.1 km/h
154 23-02-2013 12:45:00 -2.2 C 3.66 g/m*3 -7.34 C 16.1 km/h
155 23-02-2013 12:50:00 -2.1 C 3.64 g/m*3 -5.74 C 9.7 km/h
156 23-02-2013 12:55:00 -2.1 C 3.68 g/m*3 -5.74 C 9.7 km/h
157 23-02-2013 13:00:00 -2 C 3.67 g/m*3 -6.05 C 11.3 km/h
158 23-02-2013 13:05:00 -2 C 3.67 g/m*3 -6.78 C 14.5 km/h
159 23-02-2013 13:10:00 -1.9 C 3.74 g/m*3 -4.38 C 6.4 km/h
160 23-02-2013 13:15:00 -1.8 C 3.76 g/m*3 -6.19 C 12.9 km/h
161 23-02-2013 13:20:00 -1.7 C 3.79 g/m*3 -5.26 C 9.7 km/h
162 23-02-2013 13:25:00 -1.6 C 3.81 g/m*3 -5.57 C 11.3 km/h
163 23-02-2013 13:30:00 -1.6 C 3.81 g/m*3 -5.14 C 9.7 km/h
164 23-02-2013 13:35:00 -1.7 C 3.79 g/m*3 -4.77 C 8.1 km/h
165 23-02-2013 13:40:00 -1.7 C 3.79 g/m*3 -5.69 C 11.3 km/h
166 23-02-2013 13:45:00 -1.7 C 3.79 g/m*3 -5.26 C 9.7 km/h
167 23-02-2013 13:50:00 -1.8 C 3.76 g/m*3 -6.19 C 12.9 km/h
168 23-02-2013 13:55:00 -1.7 C 3.83 g/m*3 -4.77 C 8.1 km/h
169 23-02-2013 14:00:00 -1.6 C 3.77 g/m*3 -5.95 C 12.9 km/h
170 23-02-2013 14:05:00 -1.5 C 3.8 g/m*3 -3.91 C 6.4 km/h
171 23-02-2013 14:10:00 -1.4 C 3.78 g/m*3 -4.9 C 9.7 km/h
172 23-02-2013 14:15:00 -1.3 C 3.76 g/m*3 -4.3 C 8.1 km/h
173 23-02-2013 14:20:00 -1.3 C 3.81 g/m*3 -3.68 C 6.4 km/h
174 23-02-2013 14:25:00 -1.3 C 3.81 g/m*3 -4.3 C 8.1 km/h
175 23-02-2013 14:30:00 -1.2 C 3.88 g/m*3 -4.66 C 9.7 km/h
Sensor: Nr:Datum:Temp:Abs-Feuchte:Windchill:Wind:
Aussen-T/F 176 23-02-2013 14:35:00 -1.3 C 3.85 g/m*3 -4.3 C 8.1 km/h
177 23-02-2013 14:40:00 -1.4 C 3.82 g/m*3 -5.7 C 12.9 km/h
178 23-02-2013 14:45:00 -1.4 C 3.82 g/m*3 -5.33 C 11.3 km/h
179 23-02-2013 14:50:00 -1.6 C 3.77 g/m*3 -4.65 C 8.1 km/h
180 23-02-2013 14:55:00 -1.6 C 3.81 g/m*3 -4.03 C 6.4 km/h
181 23-02-2013 15:00:00 -1.6 C 3.81 g/m*3 -4.03 C 6.4 km/h
182 23-02-2013 15:05:00 -1.6 C 3.81 g/m*3 -4.65 C 8.1 km/h
183 23-02-2013 15:10:00 -1.6 C 3.86 g/m*3 -5.14 C 9.7 km/h
184 23-02-2013 15:15:00 -1.6 C 3.86 g/m*3 -6.29 C 14.5 km/h
185 23-02-2013 15:20:00 -1.7 C 3.83 g/m*3 -5.26 C 9.7 km/h
186 23-02-2013 15:25:00 -1.7 C 3.83 g/m*3 -5.26 C 9.7 km/h
187 23-02-2013 15:30:00 -1.7 C 3.87 g/m*3 -4.15 C 6.4 km/h
188 23-02-2013 15:35:00 -1.7 C 3.87 g/m*3 -4.15 C 6.4 km/h
189 23-02-2013 15:40:00 -1.7 C 3.83 g/m*3 -4.15 C 6.4 km/h
190 23-02-2013 15:45:00 -1.8 C 3.85 g/m*3 -4.26 C 6.4 km/h
191 23-02-2013 15:50:00 -1.7 C 3.83 g/m*3 -1.7 C 4.8 km/h
192 23-02-2013 15:55:00 -1.7 C 3.83 g/m*3 -4.15 C 6.4 km/h
193 23-02-2013 16:00:00 -1.7 C 3.83 g/m*3 -4.77 C 8.1 km/h
194 23-02-2013 16:05:00 -1.7 C 3.83 g/m*3 -4.15 C 6.4 km/h
195 23-02-2013 16:10:00 -1.7 C 3.83 g/m*3 -4.15 C 6.4 km/h
196 23-02-2013 16:15:00 -1.7 C 3.83 g/m*3 -4.15 C 6.4 km/h
197 23-02-2013 16:20:00 -1.7 C 3.83 g/m*3 -4.77 C 8.1 km/h
198 23-02-2013 16:25:00 -1.7 C 3.83 g/m*3 -5.26 C 9.7 km/h
199 23-02-2013 16:30:00 -1.7 C 3.83 g/m*3 -5.69 C 11.3 km/h
200 23-02-2013 16:35:00 -1.7 C 3.83 g/m*3 -6.07 C 12.9 km/h
Sensor: Nr:Datum:Temp:Abs-Feuchte:Windchill:Wind:
Aussen-T/F 201 23-02-2013 16:40:00 -1.8 C 3.8 g/m*3 -4.89 C 8.1 km/h
202 23-02-2013 16:45:00 -1.8 C 3.8 g/m*3 -4.89 C 8.1 km/h
203 23-02-2013 16:50:00 -1.8 C 3.8 g/m*3 -5.38 C 9.7 km/h
204 23-02-2013 16:55:00 -1.9 C 3.78 g/m*3 -5.93 C 11.3 km/h
205 23-02-2013 17:00:00 -1.9 C 3.78 g/m*3 -5.93 C 11.3 km/h
206 23-02-2013 17:05:00 -2 C 3.79 g/m*3 -4.49 C 6.4 km/h
207 23-02-2013 17:10:00 -2 C 3.79 g/m*3 -2 C 4.8 km/h
208 23-02-2013 17:15:00 -2.1 C 3.77 g/m*3 -5.24 C 8.1 km/h
209 23-02-2013 17:20:00 -2.1 C 3.77 g/m*3 -2.1 C 4.8 km/h
210 23-02-2013 17:25:00 -2.1 C 3.77 g/m*3 -5.74 C 9.7 km/h
211 23-02-2013 17:30:00 -2.2 C 3.74 g/m*3 -7.03 C 14.5 km/h
212 23-02-2013 17:35:00 -2.2 C 3.74 g/m*3 -2.2 C 4.8 km/h
213 23-02-2013 17:40:00 -2.2 C 3.74 g/m*3 -4.72 C 6.4 km/h
214 23-02-2013 17:45:00 -2.2 C 3.74 g/m*3 -5.36 C 8.1 km/h
215 23-02-2013 17:50:00 -2.2 C 3.74 g/m*3 -5.36 C 8.1 km/h
216 23-02-2013 17:55:00 -2.2 C 3.74 g/m*3 -4.72 C 6.4 km/h
217 23-02-2013 18:00:00 -2.2 C 3.74 g/m*3 -5.86 C 9.7 km/h
218 23-02-2013 18:05:00 -2.2 C 3.7 g/m*3 -5.36 C 8.1 km/h
219 23-02-2013 18:10:00 -2.3 C 3.67 g/m*3 -4.84 C 6.4 km/h
220 23-02-2013 18:15:00 -2.3 C 3.67 g/m*3 -5.47 C 8.1 km/h
221 23-02-2013 18:20:00 -2.3 C 3.67 g/m*3 -5.47 C 8.1 km/h
222 23-02-2013 18:25:00 -2.3 C 3.67 g/m*3 -5.47 C 8.1 km/h
223 23-02-2013 18:30:00 -2.3 C 3.67 g/m*3 -5.47 C 8.1 km/h
224 23-02-2013 18:35:00 -2.3 C 3.67 g/m*3 -2.3 C 4.8 km/h
225 23-02-2013 18:40:00 -2.3 C 3.63 g/m*3 -5.98 C 9.7 km/h
Sensor: Nr:Datum:Temp:Abs-Feuchte:Windchill:Wind:
Aussen-T/F 226 23-02-2013 18:45:00 -2.3 C 3.63 g/m*3 -2.3 C 4.8 km/h
227 23-02-2013 18:50:00 -2.2 C 3.66 g/m*3 -2.2 C 4.8 km/h
228 23-02-2013 18:55:00 -2.3 C 3.59 g/m*3 -6.8 C 12.9 km/h
229 23-02-2013 19:00:00 -2.2 C 3.62 g/m*3 -6.29 C 11.3 km/h
230 23-02-2013 19:05:00 -2.2 C 3.62 g/m*3 -4.72 C 6.4 km/h
231 23-02-2013 19:10:00 -2.2 C 3.57 g/m*3 -5.86 C 9.7 km/h
232 23-02-2013 19:15:00 -2.3 C 3.55 g/m*3 -4.84 C 6.4 km/h
233 23-02-2013 19:20:00 -2.3 C 3.55 g/m*3 -5.47 C 8.1 km/h
234 23-02-2013 19:25:00 -2.3 C 3.55 g/m*3 -4.84 C 6.4 km/h
235 23-02-2013 19:30:00 -2.3 C 3.55 g/m*3 -4.84 C 6.4 km/h
236 23-02-2013 19:35:00 -2.3 C 3.55 g/m*3 -2.3 C 4.8 km/h
237 23-02-2013 19:40:00 -2.3 C 3.55 g/m*3 -4.84 C 6.4 km/h
238 23-02-2013 19:45:00 -2.4 C 3.52 g/m*3 -2.4 C 4.8 km/h
239 23-02-2013 19:50:00 -2.4 C 3.52 g/m*3 -4.95 C 6.4 km/h
240 23-02-2013 19:55:00 -2.4 C 3.52 g/m*3 -2.4 C 4.8 km/h
241 23-02-2013 20:00:00 -2.5 C 3.54 g/m*3 -2.5 C 4.8 km/h
242 23-02-2013 20:05:00 -2.5 C 3.54 g/m*3 -2.5 C 1.6 km/h
243 23-02-2013 20:10:00 -2.6 C 3.52 g/m*3 -2.6 C 4.8 km/h
244 23-02-2013 20:15:00 -2.6 C 3.52 g/m*3 -2.6 C 3.2 km/h
245 23-02-2013 20:20:00 -2.6 C 3.56 g/m*3 -2.6 C 1.6 km/h
246 23-02-2013 20:25:00 -2.6 C 3.56 g/m*3 -2.6 C 1.6 km/h
247 23-02-2013 20:30:00 -2.6 C 3.56 g/m*3 -2.6 C 3.2 km/h
248 23-02-2013 20:35:00 -2.6 C 3.56 g/m*3 -2.6 C 3.2 km/h
249 23-02-2013 20:40:00 -2.6 C 3.6 g/m*3 -2.6 C 3.2 km/h
250 23-02-2013 20:45:00 -2.6 C 3.6 g/m*3 -2.6 C 3.2 km/h
Sensor: Nr:Datum:Temp:Abs-Feuchte:Windchill:Wind:
Aussen-T/F 251 23-02-2013 20:50:00 -2.6 C 3.6 g/m*3 -2.6 C 1.6 km/h
252 23-02-2013 20:55:00 -2.6 C 3.6 g/m*3 -2.6 C 1.6 km/h
253 23-02-2013 21:00:00 -2.6 C 3.6 g/m*3 -2.6 C 3.2 km/h
254 23-02-2013 21:05:00 -2.6 C 3.64 g/m*3 -2.6 C 1.6 km/h
255 23-02-2013 21:10:00 -2.6 C 3.64 g/m*3 -2.6 C 3.2 km/h
256 23-02-2013 21:15:00 -2.7 C 3.61 g/m*3 -2.7 C 0 km/h
257 23-02-2013 21:20:00 -2.7 C 3.61 g/m*3 -2.7 C 4.8 km/h
258 23-02-2013 21:25:00 -2.7 C 3.65 g/m*3 -2.7 C 4.8 km/h
259 23-02-2013 21:30:00 -2.7 C 3.65 g/m*3 -2.7 C 3.2 km/h
260 23-02-2013 21:35:00 -2.7 C 3.65 g/m*3 -2.7 C 1.6 km/h
261 23-02-2013 21:40:00 -2.7 C 3.65 g/m*3 -2.7 C 3.2 km/h
262 23-02-2013 21:45:00 -2.7 C 3.65 g/m*3 -2.7 C 1.6 km/h
263 23-02-2013 21:50:00 -2.7 C 3.69 g/m*3 -2.7 C 1.6 km/h
264 23-02-2013 21:55:00 -2.7 C 3.65 g/m*3 -2.7 C 0 km/h
265 23-02-2013 22:00:00 -2.7 C 3.69 g/m*3 -2.7 C 3.2 km/h
266 23-02-2013 22:05:00 -2.7 C 3.69 g/m*3 -2.7 C 0 km/h
267 23-02-2013 22:10:00 -2.7 C 3.69 g/m*3 -2.7 C 3.2 km/h
268 23-02-2013 22:15:00 -2.8 C 3.67 g/m*3 -2.8 C 1.6 km/h
269 23-02-2013 22:20:00 -2.8 C 3.67 g/m*3 -2.8 C 3.2 km/h
270 23-02-2013 22:25:00 -2.8 C 3.67 g/m*3 -2.8 C 4.8 km/h
271 23-02-2013 22:30:00 -2.8 C 3.67 g/m*3 -2.8 C 3.2 km/h
272 23-02-2013 22:35:00 -2.8 C 3.67 g/m*3 -2.8 C 1.6 km/h
273 23-02-2013 22:40:00 -2.8 C 3.67 g/m*3 -2.8 C 1.6 km/h
274 23-02-2013 22:45:00 -2.8 C 3.67 g/m*3 -2.8 C 1.6 km/h
275 23-02-2013 22:50:00 -2.8 C 3.67 g/m*3 -2.8 C 1.6 km/h
Sensor: Nr:Datum:Temp:Abs-Feuchte:Windchill:Wind:
Aussen-T/F 276 23-02-2013 22:55:00 -2.8 C 3.67 g/m*3 -2.8 C 1.6 km/h
277 23-02-2013 23:00:00 -2.8 C 3.67 g/m*3 -2.8 C 4.8 km/h
278 23-02-2013 23:05:00 -2.8 C 3.67 g/m*3 -2.8 C 1.6 km/h
279 23-02-2013 23:10:00 -2.8 C 3.67 g/m*3 -2.8 C 1.6 km/h
280 23-02-2013 23:15:00 -2.8 C 3.67 g/m*3 -2.8 C 3.2 km/h
281 23-02-2013 23:20:00 -2.8 C 3.67 g/m*3 -2.8 C 1.6 km/h
282 23-02-2013 23:25:00 -2.8 C 3.67 g/m*3 -2.8 C 3.2 km/h
283 23-02-2013 23:30:00 -2.8 C 3.67 g/m*3 -2.8 C 1.6 km/h
284 23-02-2013 23:35:00 -2.8 C 3.67 g/m*3 -2.8 C 1.6 km/h
285 23-02-2013 23:40:00 -2.8 C 3.67 g/m*3 -2.8 C 0 km/h
286 23-02-2013 23:45:00 -2.8 C 3.67 g/m*3 -2.8 C 3.2 km/h
287 23-02-2013 23:50:00 -2.8 C 3.67 g/m*3 -2.8 C 3.2 km/h
288 23-02-2013 23:55:00 -2.8 C 3.63 g/m*3 -2.8 C 3.2 km/h

Legende:
   Min
   Max


Maximal/Minimal-Werte vom 23.02.2003 - 30.09.2000

Sensor Min Max Avg
Temp
(Aussen-T/F)
°C
-- 
°C 0 °C

Die Daten stammen von einer Davis Vantage Pro 2 Wetter-Station und werden unter Linux mit der Software wview2wettercgi und aufbereitet. Alle Angaben erfolgen ohne Gewähr für ihre Vollständigkeit oder Richtigkeit.
Kontakt: Rainer Krienke krienke@uni-koblenz.de . Meine Webseiten an der Uni Koblenz oder privat.
Version: $Revision: 0.78 $